Time;durP1;ratioP1;P1;durP2;ratioP2;P2;SDS_P1;SDS_P2;PMS_P1;PMS_P2;Temp;Humidity;BMP_temperature;BMP_pressure;BME280_temperature;BME280_humidity;BME280_pressure;Samples;Min_cycle;Max_cycle;Signal;HPM_P1;HPM_P2
2021/05/06 00:03:43;;;;;;;1.00;0.80;;;;;;;4.79;100.00;98557.16;10497277;28;20163;-74
2021/05/06 00:36:19;;;;;;;1.47;1.37;;;;;;;4.19;100.00;98560.34;10497445;28;20179;-75
2021/05/06 01:09:15;;;;;;;1.67;1.07;;;;;;;3.94;100.00;98527.41;10499080;28;20206;-75
2021/05/06 01:14:34;;;;;;;1.23;0.70;;;;;;;3.86;100.00;98530.38;10505930;28;20253;-75
2021/05/06 01:19:53;;;;;;;1.10;0.90;;;;;;;3.78;100.00;98536.09;10504541;28;20178;-74
2021/05/06 01:25:13;;;;;;;1.07;0.97;;;;;;;3.68;100.00;98531.28;10505403;28;20182;-75
2021/05/06 01:36:00;;;;;;;1.17;0.97;;;;;;;3.81;100.00;98506.22;10504417;28;20257;-75
2021/05/06 01:58:18;;;;;;;0.80;0.47;;;;;;;4.43;100.00;98508.13;10503565;28;20191;-73
2021/05/06 02:03:37;;;;;;;0.90;0.60;;;;;;;4.48;100.00;98505.88;10502541;28;20183;-73
2021/05/06 02:08:56;;;;;;;0.80;0.60;;;;;;;4.52;100.00;98497.72;10502573;28;20202;-74
2021/05/06 02:14:15;;;;;;;1.50;0.90;;;;;;;4.60;100.00;98494.72;10502282;28;20206;-74
2021/05/06 02:19:37;;;;;;;1.20;0.50;;;;;;;4.70;100.00;98502.19;10501894;28;20166;-74
2021/05/06 02:24:56;;;;;;;0.90;0.50;;;;;;;4.86;100.00;98489.09;10502019;28;20231;-74
2021/05/06 02:30:16;;;;;;;0.83;0.50;;;;;;;4.96;100.00;98489.22;10499761;28;20266;-74
2021/05/06 02:35:38;;;;;;;1.03;0.87;;;;;;;5.05;100.00;98489.66;10502674;28;20178;-74
2021/05/06 02:40:56;;;;;;;0.80;0.50;;;;;;;5.08;100.00;98496.31;10502472;28;20282;-74
2021/05/06 02:46:15;;;;;;;0.90;0.60;;;;;;;5.08;100.00;98488.16;10501100;28;20529;-74
2021/05/06 02:51:38;;;;;;;0.90;0.60;;;;;;;5.07;100.00;98483.84;10501462;28;20206;-74
2021/05/06 02:57:09;;;;;;;0.97;0.77;;;;;;;5.11;100.00;98479.19;10501777;28;20693;-74
2021/05/06 03:02:48;;;;;;;1.10;1.00;;;;;;;5.18;100.00;98476.50;10499350;28;20517;-74
2021/05/06 03:08:22;;;;;;;4.83;2.03;;;;;;;5.17;100.00;98474.97;10500363;28;20568;-77
2021/05/06 03:25:00;;;;;;;0.80;0.50;;;;;;;5.14;100.00;98459.38;10500642;28;20206;-75
2021/05/06 03:47:47;;;;;;;0.90;0.50;;;;;;;4.93;100.00;98442.84;10495449;28;20273;-74
2021/05/06 04:16:02;;;;;;;2.73;1.80;;;;;;;4.62;100.00;98453.47;10496721;28;20175;-75
2021/05/06 04:27:09;;;;;;;0.90;0.67;;;;;;;4.59;100.00;98452.28;10497696;28;20222;-75
2021/05/06 04:38:08;;;;;;;1.60;1.27;;;;;;;4.64;100.00;98449.22;10497349;28;20202;-73
2021/05/06 04:54:39;;;;;;;2.57;1.30;;;;;;;4.92;100.00;98452.19;10497445;28;20171;-76
2021/05/06 05:05:39;;;;;;;1.77;1.47;;;;;;;5.28;100.00;98448.56;10488589;28;20200;-75
2021/05/06 05:27:35;;;;;;;0.93;0.73;;;;;;;5.79;100.00;98469.94;10454633;28;20618;-77
2021/05/06 05:32:54;;;;;;;1.27;0.70;;;;;;;5.95;100.00;98472.34;10453950;28;20595;-77
2021/05/06 05:38:59;;;;;;;1.17;0.83;;;;;;;5.99;100.00;98468.47;10489262;28;20202;-76
2021/05/06 05:55:14;;;;;;;2.10;0.60;;;;;;;6.09;100.00;98456.81;10456952;28;20709;-75
2021/05/06 06:00:33;;;;;;;0.90;0.70;;;;;;;6.28;100.00;98456.50;10460454;28;20626;-75
2021/05/06 06:05:53;;;;;;;2.20;1.70;;;;;;;6.44;100.00;98448.72;10461330;28;20964;-77
2021/05/06 06:11:12;;;;;;;0.90;0.77;;;;;;;6.54;100.00;98445.25;10460903;28;20210;-78
2021/05/06 06:16:33;;;;;;;1.10;0.80;;;;;;;6.77;100.00;98443.69;10460766;28;20599;-74
2021/05/06 06:21:59;;;;;;;1.30;1.13;;;;;;;6.81;100.00;98441.75;10460715;28;20175;-77
2021/05/06 06:27:20;;;;;;;2.03;1.40;;;;;;;6.87;100.00;98436.66;10460359;28;20266;-76
2021/05/06 06:32:39;;;;;;;1.20;1.07;;;;;;;6.86;100.00;98438.63;10458539;28;20211;-74
2021/05/06 06:37:58;;;;;;;2.50;1.63;;;;;;;6.97;100.00;98435.88;10461180;28;20195;-75
2021/05/06 06:43:17;;;;;;;1.33;1.23;;;;;;;6.94;100.00;98439.41;10459927;28;20179;-76
2021/05/06 06:48:36;;;;;;;0.90;0.60;;;;;;;6.99;100.00;98439.00;10461150;28;20183;-74
2021/05/06 06:53:55;;;;;;;0.90;0.57;;;;;;;7.11;100.00;98431.97;10498586;28;20183;-76
2021/05/06 06:59:14;;;;;;;0.90;0.60;;;;;;;7.29;100.00;98427.25;10462623;28;20179;-77
2021/05/06 07:04:33;;;;;;;1.47;0.77;;;;;;;7.46;96.44;98429.19;10459006;28;20179;-75
2021/05/06 07:09:52;;;;;;;10.90;2.73;;;;;;;7.44;97.43;98428.03;10458846;28;20199;-75
2021/05/06 07:15:11;;;;;;;1.17;0.80;;;;;;;7.64;95.80;98453.75;10458581;28;20214;-74
2021/05/06 07:20:30;;;;;;;1.23;1.13;;;;;;;7.33;96.64;98428.06;10459532;28;20176;-74
2021/05/06 07:25:52;;;;;;;2.70;0.87;;;;;;;7.27;97.18;98437.81;10457946;28;20251;-74
2021/05/06 07:31:12;;;;;;;14.50;2.40;;;;;;;7.33;99.49;98439.00;10468580;28;20207;-74
2021/05/06 07:36:31;;;;;;;0.80;0.40;;;;;;;6.58;100.00;98449.50;10458944;28;20195;-75
2021/05/06 07:41:50;;;;;;;0.80;0.50;;;;;;;6.40;100.00;98445.19;10457705;28;20180;-75
2021/05/06 07:47:10;;;;;;;1.30;1.20;;;;;;;6.44;100.00;98448.72;10457305;28;20633;-75
2021/05/06 07:52:30;;;;;;;1.33;0.63;;;;;;;6.15;100.00;98452.53;10456971;28;20202;-77
2021/05/06 07:57:49;;;;;;;1.43;0.60;;;;;;;6.09;100.00;98454.06;10457899;28;20183;-76
2021/05/06 08:03:08;;;;;;;3.30;0.70;;;;;;;6.11;100.00;98462.66;10456634;28;20179;-75
2021/05/06 08:08:27;;;;;;;0.90;0.50;;;;;;;6.09;100.00;98456.81;10456614;28;20179;-75
2021/05/06 08:13:46;;;;;;;1.20;0.87;;;;;;;6.01;100.00;98449.00;10457551;28;20179;-76
2021/05/06 08:19:05;;;;;;;0.90;0.60;;;;;;;5.82;100.00;98452.78;10455889;28;20179;-78
2021/05/06 08:24:24;;;;;;;2.30;0.87;;;;;;;5.86;100.00;98461.78;10457087;28;20689;-76
2021/05/06 08:29:45;;;;;;;2.13;1.07;;;;;;;5.71;100.00;98462.06;10472747;28;20226;-77
2021/05/06 08:35:06;;;;;;;1.03;0.70;;;;;;;5.69;100.00;98467.91;10471085;28;20618;-75
2021/05/06 08:40:27;;;;;;;0.90;0.60;;;;;;;5.65;100.00;98467.09;10497025;28;20166;-77
2021/05/06 08:45:50;;;;;;;1.80;0.83;;;;;;;5.71;100.00;98471.03;10495713;28;20199;-75
2021/05/06 08:51:10;;;;;;;0.87;0.63;;;;;;;5.65;100.00;98475.28;10492939;28;20253;-76
2021/05/06 08:56:29;;;;;;;0.80;0.50;;;;;;;5.87;100.00;98476.19;10496496;28;20167;-75
2021/05/06 09:01:48;;;;;;;1.63;1.20;;;;;;;5.71;100.00;98479.22;10496321;28;20171;-75
2021/05/06 09:07:09;;;;;;;7.77;1.17;;;;;;;5.58;100.00;98485.38;10496310;28;20174;-76
2021/05/06 09:12:39;;;;;;;1.10;0.93;;;;;;;5.50;100.00;98481.81;10495841;28;20206;-75
2021/05/06 09:17:57;;;;;;;1.20;1.10;;;;;;;5.52;100.00;98484.94;10491270;28;20586;-74
2021/05/06 09:23:16;;;;;;;0.90;0.60;;;;;;;5.60;100.00;98481.09;10455474;28;20179;-74
2021/05/06 09:28:35;;;;;;;1.00;0.87;;;;;;;5.27;100.00;98472.31;10454993;28;20226;-77
2021/05/06 09:33:55;;;;;;;1.40;1.20;;;;;;;5.41;100.00;98475.13;10462329;28;20207;-76
2021/05/06 09:39:14;;;;;;;1.20;0.83;;;;;;;5.41;100.00;98471.66;10462523;28;20183;-75
2021/05/06 09:44:53;;;;;;;2.60;1.10;;;;;;;5.54;100.00;98462.75;10463300;28;20180;-75
2021/05/06 09:50:25;;;;;;;1.47;1.00;;;;;;;5.67;100.00;98453.84;10461951;28;20210;-75
2021/05/06 09:55:46;;;;;;;1.20;0.90;;;;;;;5.97;100.00;98448.97;10463102;28;20167;-75
2021/05/06 10:01:10;;;;;;;1.77;1.07;;;;;;;6.61;100.00;98447.97;10461317;28;20242;-75
2021/05/06 10:06:29;;;;;;;3.00;2.53;;;;;;;7.23;100.00;98439.78;10461241;28;20176;-74
2021/05/06 10:11:48;;;;;;;5.80;1.03;;;;;;;7.01;100.00;98439.41;10474831;28;20282;-74
2021/05/06 10:17:07;;;;;;;2.40;1.57;;;;;;;7.43;100.00;98437.41;10460809;28;20653;-78
2021/05/06 10:22:29;;;;;;;1.60;1.50;;;;;;;8.82;100.00;98425.81;10461673;28;20254;-77
2021/05/06 10:27:49;;;;;;;2.00;1.73;;;;;;;8.89;100.00;98429.28;10460062;28;20223;-76
2021/05/06 10:33:08;;;;;;;1.27;0.97;;;;;;;8.19;100.00;98426.22;10463707;28;20210;-74
2021/05/06 10:38:35;;;;;;;0.90;0.60;;;;;;;7.35;100.00;98420.22;10495189;28;20191;-75
2021/05/06 10:44:03;;;;;;;1.97;1.23;;;;;;;7.45;100.00;98416.69;10458536;28;20618;-75
2021/05/06 10:49:24;;;;;;;1.30;1.00;;;;;;;7.75;100.00;98410.72;10458577;28;20656;-75
2021/05/06 10:54:51;;;;;;;1.43;1.33;;;;;;;7.56;100.00;98398.28;10459810;28;20179;-77
2021/05/06 11:00:25;;;;;;;1.20;0.87;;;;;;;8.08;100.00;98400.81;10473359;28;20183;-75
2021/05/06 11:05:51;;;;;;;1.00;0.90;;;;;;;7.98;100.00;98395.38;10500545;28;20520;-76
2021/05/06 11:11:09;;;;;;;1.33;1.23;;;;;;;8.06;100.00;98388.69;10500169;28;20203;-76
2021/05/06 11:16:28;;;;;;;1.53;0.90;;;;;;;7.90;100.00;98380.16;10498942;28;20182;-77
2021/05/06 11:21:48;;;;;;;1.30;1.00;;;;;;;7.76;100.00;98374.72;10501080;28;20175;-75
2021/05/06 11:27:12;;;;;;;1.60;1.03;;;;;;;8.11;100.00;98358.13;10499288;28;20305;-75
2021/05/06 11:32:32;;;;;;;1.27;1.17;;;;;;;8.70;100.00;98357.75;10497898;28;20297;-75
2021/05/06 11:37:51;;;;;;;2.03;1.20;;;;;;;8.81;100.00;98364.69;10499260;28;20230;-76
2021/05/06 11:43:20;;;;;;;1.40;1.30;;;;;;;8.92;100.00;98359.16;10498891;28;20182;-75
2021/05/06 11:48:46;;;;;;;1.87;1.17;;;;;;;9.04;100.00;98318.28;10497439;28;20179;-74
2021/05/06 11:54:20;;;;;;;1.00;0.87;;;;;;;8.91;100.00;98317.22;10498922;28;20178;-75
2021/05/06 11:59:45;;;;;;;1.63;1.20;;;;;;;8.96;100.00;98326.97;10498279;28;20188;-74
2021/05/06 12:05:05;;;;;;;1.40;1.00;;;;;;;8.77;100.00;98335.75;10474682;28;20266;-74
2021/05/06 12:10:24;;;;;;;1.33;1.17;;;;;;;9.09;100.00;98326.06;10497653;28;20613;-76
2021/05/06 12:15:43;;;;;;;1.73;1.63;;;;;;;9.18;100.00;98318.13;10497718;28;20174;-76
2021/05/06 12:21:04;;;;;;;5.03;2.50;;;;;;;9.94;98.47;98299.91;10498557;28;20559;-75
2021/05/06 12:26:25;;;;;;;1.57;0.90;;;;;;;11.18;89.99;98274.31;10498326;28;20218;-75
2021/05/06 12:31:49;;;;;;;1.10;1.00;;;;;;;12.29;69.93;98253.81;10495635;28;20209;-76
2021/05/06 12:37:09;;;;;;;2.63;1.57;;;;;;;12.29;66.12;98271.13;10497485;28;20775;-76
2021/05/06 12:42:30;;;;;;;2.30;2.10;;;;;;;10.83;72.43;98273.38;10498137;28;20179;-75
2021/05/06 12:47:49;;;;;;;1.87;1.13;;;;;;;10.41;73.58;98272.16;10495509;28;20174;-74
2021/05/06 12:53:09;;;;;;;2.07;1.30;;;;;;;10.26;71.38;98256.28;10496202;28;20684;-75
2021/05/06 12:58:31;;;;;;;1.47;1.03;;;;;;;10.46;73.02;98237.88;10496526;28;20167;-74
2021/05/06 13:03:58;;;;;;;3.27;2.30;;;;;;;10.43;71.81;98234.00;10495525;28;20175;-75
2021/05/06 13:09:17;;;;;;;1.83;1.53;;;;;;;10.69;73.68;98210.38;10497294;28;20199;-75
2021/05/06 13:15:02;;;;;;;1.57;1.47;;;;;;;10.24;73.77;98208.41;10497213;28;20653;-75
2021/05/06 13:20:24;;;;;;;2.23;1.40;;;;;;;10.16;76.25;98212.47;10497205;28;20170;-75
2021/05/06 13:25:46;;;;;;;1.37;1.27;;;;;;;9.61;75.94;98209.38;10495816;28;20218;-75
2021/05/06 13:31:21;;;;;;;2.03;1.57;;;;;;;9.49;79.05;98203.66;10494481;28;20218;-75
2021/05/06 13:36:49;;;;;;;2.53;1.60;;;;;;;9.63;79.79;98210.50;10495856;28;20203;-74
2021/05/06 13:42:08;;;;;;;1.40;1.20;;;;;;;9.56;81.50;98204.31;10496691;28;20179;-75
2021/05/06 13:47:28;;;;;;;9.30;2.20;;;;;;;9.56;84.16;98193.34;10494478;28;20171;-76
2021/05/06 13:52:47;;;;;;;3.47;2.00;;;;;;;9.26;88.14;98176.09;10496066;28;20597;-76
2021/05/06 13:58:05;;;;;;;2.60;2.03;;;;;;;9.17;90.82;98162.91;10496575;28;20167;-74
2021/05/06 14:03:26;;;;;;;2.00;1.60;;;;;;;9.12;96.72;98157.88;10494080;28;20193;-75
2021/05/06 14:08:45;;;;;;;2.03;1.83;;;;;;;9.25;100.00;98138.91;10495292;28;20178;-75
2021/05/06 14:14:04;;;;;;;2.00;1.87;;;;;;;9.29;99.56;98126.66;10496177;28;20539;-75
2021/05/06 14:19:23;;;;;;;4.63;1.97;;;;;;;9.16;100.00;98133.16;10501617;28;20174;-74
2021/05/06 14:24:42;;;;;;;4.20;2.40;;;;;;;8.94;100.00;98127.16;10503412;28;20632;-75
2021/05/06 14:30:01;;;;;;;1.73;1.33;;;;;;;8.91;100.00;98106.03;10501028;28;20234;-74
2021/05/06 14:35:20;;;;;;;10.40;2.50;;;;;;;9.00;100.00;98097.31;10503036;28;20194;-74
2021/05/06 14:40:40;;;;;;;3.17;1.53;;;;;;;9.12;100.00;98099.47;10501692;28;20600;-75
2021/05/06 14:46:00;;;;;;;6.47;2.77;;;;;;;9.14;100.00;98089.63;10501449;28;20170;-75
2021/05/06 14:51:19;;;;;;;2.47;2.27;;;;;;;9.27;100.00;98095.34;10501902;28;20206;-74
2021/05/06 14:56:38;;;;;;;2.80;2.60;;;;;;;9.17;100.00;98088.03;10502264;28;20174;-77
2021/05/06 15:01:57;;;;;;;1.80;1.37;;;;;;;9.23;100.00;98083.66;10500608;28;20182;-76
2021/05/06 15:07:16;;;;;;;3.60;2.87;;;;;;;9.02;100.00;98073.75;10500832;28;20257;-77
2021/05/06 15:12:35;;;;;;;2.40;2.20;;;;;;;8.83;100.00;98076.38;10501075;28;20285;-76
2021/05/06 15:17:57;;;;;;;4.93;3.27;;;;;;;8.75;100.00;98052.97;10500119;28;20186;-76
2021/05/06 15:23:16;;;;;;;6.80;2.17;;;;;;;8.76;100.00;98054.53;10500187;28;20171;-76
2021/05/06 15:28:35;;;;;;;4.60;2.90;;;;;;;8.93;100.00;98046.06;10498596;28;20218;-76
2021/05/06 15:33:54;;;;;;;11.27;2.60;;;;;;;9.01;100.00;98047.50;10498695;28;20206;-76
2021/05/06 15:39:13;;;;;;;33.27;2.30;;;;;;;9.03;100.00;98049.84;10500439;28;20668;-76
2021/05/06 15:44:32;;;;;;;2.53;1.73;;;;;;;9.11;100.00;98032.06;10500190;28;20625;-77
2021/05/06 15:49:51;;;;;;;2.83;2.63;;;;;;;9.31;100.00;98024.72;10499689;28;20202;-75
2021/05/06 15:55:13;;;;;;;2.83;2.63;;;;;;;9.44;100.00;98015.50;10498736;28;20178;-78
2021/05/06 16:00:32;;;;;;;2.43;2.23;;;;;;;9.52;100.00;97994.97;10498297;28;20189;-77
2021/05/06 16:05:54;;;;;;;4.37;1.73;;;;;;;9.70;100.00;97978.94;10499270;28;20637;-77
2021/05/06 16:11:12;;;;;;;2.50;2.30;;;;;;;9.70;100.00;97973.44;10498865;28;20307;-78
2021/05/06 16:16:31;;;;;;;3.33;3.00;;;;;;;9.54;100.00;97957.66;10497624;28;20175;-78
2021/05/06 16:21:50;;;;;;;4.20;2.90;;;;;;;9.45;100.00;97948.41;10498686;28;20641;-79
2021/05/06 16:27:09;;;;;;;2.67;2.47;;;;;;;9.35;100.00;97938.41;10497926;28;20226;-78
2021/05/06 16:32:29;;;;;;;5.33;2.83;;;;;;;9.29;100.00;97917.34;10495575;28;20214;-77
2021/05/06 16:37:57;;;;;;;3.90;2.87;;;;;;;9.10;100.00;97931.75;10498173;28;20209;-80
2021/05/06 16:48:34;;;;;;;2.90;2.27;;;;;;;8.72;100.00;97919.44;10496045;28;20170;-79
2021/05/06 16:53:55;;;;;;;3.43;2.03;;;;;;;8.56;100.00;97899.34;10497247;28;20217;-77
2021/05/06 16:59:14;;;;;;;3.53;2.57;;;;;;;8.50;100.00;97912.75;10497740;28;20253;-80
2021/05/06 17:04:33;;;;;;;3.63;3.37;;;;;;;8.46;100.00;97892.06;10496228;28;20210;-77
2021/05/06 17:09:52;;;;;;;3.60;2.07;;;;;;;8.27;100.00;97887.22;10496200;28;20570;-77
2021/05/06 17:15:12;;;;;;;2.30;2.03;;;;;;;8.26;100.00;97897.44;10496083;28;20182;-78
2021/05/06 17:20:32;;;;;;;3.07;1.77;;;;;;;8.18;100.00;97878.75;10497244;28;20203;-78
2021/05/06 17:25:51;;;;;;;3.00;2.33;;;;;;;8.19;100.00;97867.38;10496591;28;20215;-78
2021/05/06 17:31:12;;;;;;;5.50;3.33;;;;;;;8.11;100.00;97849.47;10495379;28;20226;-79
2021/05/06 17:36:31;;;;;;;8.40;4.07;;;;;;;8.00;100.00;97864.47;10496994;28;20167;-77
2021/05/06 17:41:50;;;;;;;2.87;2.70;;;;;;;7.99;100.00;97873.91;10495789;28;20167;-80
2021/05/06 17:47:09;;;;;;;2.70;2.50;;;;;;;8.03;100.00;97880.09;10494406;28;20266;-77
2021/05/06 17:52:29;;;;;;;2.73;2.20;;;;;;;7.98;100.00;97883.31;10499274;28;20728;-77
2021/05/06 17:57:48;;;;;;;3.40;3.10;;;;;;;7.93;100.00;97861.84;10504409;28;20629;-76
2021/05/06 18:03:07;;;;;;;4.70;4.03;;;;;;;7.88;100.00;97851.34;10502914;28;20178;-78
2021/05/06 18:08:26;;;;;;;3.30;2.40;;;;;;;7.92;100.00;97873.97;10504071;28;20182;-77
2021/05/06 18:13:50;;;;;;;2.90;2.53;;;;;;;7.95;100.00;97848.50;10502177;28;20202;-76
2021/05/06 18:19:10;;;;;;;3.27;2.97;;;;;;;7.92;100.00;97838.38;10502499;28;20183;-76
2021/05/06 18:24:29;;;;;;;8.33;4.10;;;;;;;7.89;100.00;97831.75;10503541;28;20198;-77
2021/05/06 18:29:49;;;;;;;3.20;2.80;;;;;;;7.96;100.00;97842.63;10500335;28;20234;-77
2021/05/06 18:35:09;;;;;;;3.97;2.47;;;;;;;8.01;100.00;97855.06;10502017;28;20543;-79
2021/05/06 18:40:29;;;;;;;3.30;2.63;;;;;;;8.01;100.00;97849.59;10501640;28;20179;-78
2021/05/06 18:45:49;;;;;;;3.77;3.40;;;;;;;7.99;100.00;97857.47;10500419;28;20645;-77
2021/05/06 18:51:08;;;;;;;9.43;4.20;;;;;;;7.98;100.00;97862.16;10501758;28;20238;-78
2021/05/06 18:56:26;;;;;;;4.90;2.67;;;;;;;8.00;100.00;97856.25;10502273;28;20715;-78
2021/05/06 19:01:47;;;;;;;2.90;2.20;;;;;;;7.92;100.00;97847.38;10498625;28;20175;-78
2021/05/06 19:07:08;;;;;;;3.53;2.63;;;;;;;7.91;100.00;97847.78;10501722;28;20174;-77
2021/05/06 19:12:27;;;;;;;4.70;2.73;;;;;;;7.91;100.00;97858.75;10486129;28;20198;-80
2021/05/06 19:17:46;;;;;;;2.83;2.63;;;;;;;7.83;100.00;97859.22;10499091;28;20174;-79
2021/05/06 19:23:05;;;;;;;3.10;2.83;;;;;;;7.78;100.00;97852.25;10501105;28;20179;-78
2021/05/06 19:28:24;;;;;;;2.70;2.50;;;;;;;7.87;100.00;97862.72;10499265;28;20309;-77
2021/05/06 19:33:44;;;;;;;3.37;3.07;;;;;;;7.81;100.00;97867.88;10498947;28;20214;-77
2021/05/06 19:39:03;;;;;;;2.97;2.73;;;;;;;7.74;100.00;97864.44;10499515;28;20174;-79
2021/05/06 19:44:32;;;;;;;4.67;2.70;;;;;;;7.80;100.00;97871.78;10499273;28;20648;-77
2021/05/06 19:49:51;;;;;;;6.93;3.23;;;;;;;7.79;100.00;97872.19;10498780;28;20255;-78
2021/05/06 19:55:10;;;;;;;6.00;3.90;;;;;;;7.82;100.00;97876.84;10499860;28;20175;-77
2021/05/06 20:00:30;;;;;;;4.30;3.00;;;;;;;7.76;100.00;97878.50;10498371;28;20170;-76
2021/05/06 20:05:49;;;;;;;5.70;2.87;;;;;;;7.88;100.00;97895.16;10499425;28;20629;-79
2021/05/06 20:11:07;;;;;;;4.07;3.63;;;;;;;7.80;100.00;97881.94;10499014;28;20202;-77
2021/05/06 20:16:27;;;;;;;13.13;4.10;;;;;;;7.65;100.00;97867.66;10497320;28;20182;-77
2021/05/06 20:22:05;;;;;;;4.43;3.83;;;;;;;7.58;100.00;97858.75;10497796;28;20175;-81
2021/05/06 20:27:24;;;;;;;6.83;2.97;;;;;;;7.66;100.00;97861.00;10497150;28;20218;-79
2021/05/06 20:32:43;;;;;;;2.23;2.03;;;;;;;7.62;100.00;97863.00;10495605;28;20293;-79
2021/05/06 20:38:02;;;;;;;6.93;3.53;;;;;;;7.61;100.00;97866.91;10498239;28;20175;-77
2021/05/06 20:43:21;;;;;;;10.50;3.97;;;;;;;7.66;100.00;97877.44;10498067;28;20171;-77
2021/05/06 20:48:40;;;;;;;2.80;2.60;;;;;;;7.60;100.00;97884.53;10495702;28;20254;-76
2021/05/06 20:53:58;;;;;;;2.50;2.27;;;;;;;7.47;100.00;97880.78;10496019;28;20250;-77
2021/05/06 20:59:17;;;;;;;6.40;3.90;;;;;;;7.46;100.00;97883.94;10497774;28;20178;-77
2021/05/06 21:04:37;;;;;;;4.73;4.20;;;;;;;7.45;100.00;97876.91;10496216;28;20178;-79
2021/05/06 21:09:56;;;;;;;3.07;1.90;;;;;;;7.36;100.00;97877.38;10497383;28;20202;-78
2021/05/06 21:15:17;;;;;;;4.20;2.97;;;;;;;7.36;100.00;97876.59;10496069;28;20174;-78
2021/05/06 21:20:36;;;;;;;5.40;2.97;;;;;;;7.33;100.00;97863.72;10497459;28;20182;-77
2021/05/06 21:25:54;;;;;;;3.57;2.63;;;;;;;7.31;100.00;97866.88;10498899;28;20247;-78
2021/05/06 21:31:14;;;;;;;5.03;3.30;;;;;;;7.36;100.00;97880.09;10503946;28;20229;-75
2021/05/06 21:36:33;;;;;;;3.60;3.13;;;;;;;7.11;100.00;97889.75;10504446;28;20179;-76
2021/05/06 21:41:52;;;;;;;4.53;3.03;;;;;;;7.11;100.00;97899.91;10505102;28;20544;-79
2021/05/06 21:47:11;;;;;;;3.43;1.73;;;;;;;6.97;100.00;97914.47;10502587;28;20186;-78
2021/05/06 21:52:30;;;;;;;2.80;1.60;;;;;;;7.05;100.00;97912.44;10502930;28;20218;-77
2021/05/06 21:57:49;;;;;;;5.50;1.77;;;;;;;7.05;100.00;97942.53;10504689;28;20253;-78
2021/05/06 22:03:08;;;;;;;8.50;2.20;;;;;;;6.97;100.00;97941.03;10502966;28;20178;-79
2021/05/06 22:08:26;;;;;;;4.50;1.97;;;;;;;7.07;100.00;97949.13;10504181;28;20174;-76
2021/05/06 22:13:45;;;;;;;2.77;2.30;;;;;;;6.91;100.00;97940.69;10503165;28;20661;-77
2021/05/06 22:19:07;;;;;;;2.53;2.20;;;;;;;6.91;100.00;97959.81;10502367;28;20170;-77
2021/05/06 22:24:27;;;;;;;4.97;1.70;;;;;;;7.11;100.00;97961.59;10503411;28;20641;-77
2021/05/06 22:29:46;;;;;;;4.70;3.20;;;;;;;7.11;100.00;97967.06;10502222;28;20218;-77
2021/05/06 22:35:07;;;;;;;3.33;2.30;;;;;;;7.07;100.00;97971.00;10503113;28;20171;-77
2021/05/06 22:40:26;;;;;;;2.40;2.30;;;;;;;7.05;100.00;97978.06;10501584;28;20634;-76
2021/05/06 22:45:45;;;;;;;4.93;4.00;;;;;;;6.92;100.00;97980.50;10501640;28;20183;-77
2021/05/06 22:51:04;;;;;;;2.50;2.13;;;;;;;6.94;100.00;97993.78;10502244;28;20720;-76
2021/05/06 22:56:23;;;;;;;2.77;2.57;;;;;;;6.86;100.00;97986.81;10502426;28;20174;-77
2021/05/06 23:01:42;;;;;;;2.40;1.80;;;;;;;6.80;100.00;98013.78;10499692;28;20163;-76
2021/05/06 23:07:02;;;;;;;2.83;2.27;;;;;;;6.85;100.00;98031.72;10500904;28;20171;-76
2021/05/06 23:12:21;;;;;;;2.43;2.27;;;;;;;6.86;100.00;98020.38;10500231;28;20668;-76
2021/05/06 23:17:41;;;;;;;1.67;1.57;;;;;;;6.83;100.00;98009.47;10500465;28;20187;-76
2021/05/06 23:23:00;;;;;;;2.10;1.90;;;;;;;6.87;100.00;98024.69;10500235;28;20171;-76
2021/05/06 23:28:19;;;;;;;1.73;1.63;;;;;;;6.71;100.00;98018.91;10500401;28;20226;-76
2021/05/06 23:33:38;;;;;;;8.10;2.30;;;;;;;6.86;100.00;98033.28;10497801;28;20601;-76
2021/05/06 23:38:58;;;;;;;4.30;1.80;;;;;;;6.85;100.00;98029.75;10500410;28;20671;-76
2021/05/06 23:44:18;;;;;;;2.50;2.33;;;;;;;6.85;100.00;98046.16;10499272;28;20642;-77
2021/05/06 23:49:37;;;;;;;6.90;2.57;;;;;;;6.85;100.00;98050.88;10496949;28;20159;-76
2021/05/06 23:54:55;;;;;;;5.10;2.73;;;;;;;6.80;100.00;98064.94;10498965;28;20178;-76
